createdAt,value
2022-08-08T00:01:06.512Z,42.70
2022-08-08T00:03:48.011Z,42.70
2022-08-08T00:06:34.028Z,42.80
2022-08-08T00:09:07.990Z,42.70
2022-08-08T00:11:46.669Z,42.60
2022-08-08T00:14:57.436Z,42.50
2022-08-08T00:17:47.879Z,42.60
2022-08-08T00:20:18.205Z,42.60
2022-08-08T00:22:47.995Z,42.60
2022-08-08T00:25:17.441Z,42.60
2022-08-08T00:27:45.155Z,42.50
2022-08-08T00:30:15.800Z,42.50
2022-08-08T00:32:48.137Z,42.40
2022-08-08T00:35:48.794Z,42.50
2022-08-08T00:38:51.501Z,42.30
2022-08-08T00:42:09.190Z,42.40
2022-08-08T00:45:21.250Z,42.40
2022-08-08T00:48:29.848Z,42.40
2022-08-08T00:51:25.542Z,42.40
2022-08-08T00:54:36.182Z,42.40
2022-08-08T00:57:35.893Z,42.40
2022-08-08T01:00:09.533Z,42.40
2022-08-08T01:03:54.098Z,42.40
2022-08-08T01:06:27.647Z,42.30
2022-08-08T01:09:48.779Z,42.20
2022-08-08T01:12:45.884Z,42.30
2022-08-08T01:15:44.036Z,42.40
2022-08-08T01:18:53.046Z,42.40
2022-08-08T01:22:12.845Z,42.40
2022-08-08T01:24:53.723Z,42.30
2022-08-08T01:27:52.299Z,42.30
2022-08-08T01:30:55.014Z,42.30
2022-08-08T01:34:00.725Z,42.20
2022-08-08T01:36:53.020Z,42.20
2022-08-08T01:39:34.877Z,42.30
2022-08-08T01:42:08.240Z,42.20
2022-08-08T01:44:43.555Z,42.90
2022-08-08T01:48:16.542Z,42.30
2022-08-08T01:50:20.836Z,42.20
2022-08-08T01:54:33.427Z,42.30
2022-08-08T01:56:31.141Z,42.40
2022-08-08T01:58:46.430Z,42.30
2022-08-08T02:01:28.085Z,42.10
2022-08-08T02:04:15.952Z,42.10
2022-08-08T02:07:00.778Z,42.20
2022-08-08T02:10:02.190Z,42.10
2022-08-08T02:12:29.619Z,42.10
2022-08-08T02:15:02.952Z,42.00
2022-08-08T02:17:43.128Z,42.00
2022-08-08T02:20:16.165Z,42.20
2022-08-08T02:23:15.982Z,42.00
2022-08-08T02:25:49.018Z,42.00
2022-08-08T02:28:20.858Z,42.00
2022-08-08T02:31:04.956Z,41.90
2022-08-08T02:34:09.277Z,42.00
2022-08-08T02:36:40.757Z,41.80
2022-08-08T02:39:42.170Z,41.80
2022-08-08T02:44:35.699Z,41.80
2022-08-08T02:46:19.956Z,41.80
2022-08-08T02:49:13.415Z,41.80
2022-08-08T02:52:32.802Z,41.80
2022-08-08T02:55:10.237Z,41.60
2022-08-08T02:58:26.738Z,41.80
2022-08-08T03:01:14.907Z,41.90
2022-08-08T03:05:04.438Z,41.80
2022-08-08T03:07:57.553Z,41.70
2022-08-08T03:11:01.900Z,41.80
2022-08-08T03:15:57.496Z,41.70
2022-08-08T03:16:37.867Z,42.50
2022-08-08T03:19:40.114Z,42.80
2022-08-08T03:22:38.270Z,42.50
2022-08-08T03:25:14.786Z,42.60
2022-08-08T03:27:56.513Z,42.60
2022-08-08T03:30:25.053Z,42.40
2022-08-08T03:33:55.109Z,42.20
2022-08-08T03:35:58.576Z,42.30
2022-08-08T03:38:57.694Z,42.30
2022-08-08T03:42:04.136Z,42.30
2022-08-08T03:44:03.668Z,42.30
2022-08-08T03:46:32.709Z,42.20
2022-08-08T03:49:54.897Z,42.10
2022-08-08T03:51:53.090Z,42.10
2022-08-08T03:54:51.698Z,42.20
2022-08-08T03:58:30.559Z,42.20
2022-08-08T04:00:08.081Z,42.20
2022-08-08T04:02:47.214Z,42.10
2022-08-08T04:05:22.817Z,42.20
2022-08-08T04:07:56.600Z,42.70
2022-08-08T04:10:25.926Z,42.20
2022-08-08T04:13:08.236Z,42.00
2022-08-08T04:15:54.891Z,42.10
2022-08-08T04:18:32.215Z,42.00
2022-08-08T04:21:00.270Z,42.00
2022-08-08T04:23:33.429Z,42.00
2022-08-08T04:26:16.993Z,42.00
2022-08-08T04:28:48.900Z,42.00
2022-08-08T04:31:56.783Z,41.90
2022-08-08T04:34:10.689Z,42.00
2022-08-08T04:36:38.855Z,41.90
2022-08-08T04:40:04.226Z,41.90
2022-08-08T04:41:55.901Z,41.90
2022-08-08T04:44:26.729Z,41.90
2022-08-08T04:46:55.024Z,41.90
2022-08-08T04:49:28.778Z,41.80
2022-08-08T04:52:13.824Z,41.90
2022-08-08T04:54:42.665Z,41.80
2022-08-08T04:57:10.653Z,41.90
2022-08-08T04:59:41.895Z,41.90
2022-08-08T05:02:10.675Z,41.80
2022-08-08T05:04:42.021Z,41.80
2022-08-08T05:07:14.831Z,41.80
2022-08-08T05:09:43.302Z,41.90
2022-08-08T05:12:20.396Z,41.80
2022-08-08T05:15:00.616Z,41.90
2022-08-08T05:17:53.469Z,42.00
2022-08-08T05:20:20.425Z,41.80
2022-08-08T05:22:50.305Z,42.00
2022-08-08T05:25:21.457Z,42.00
2022-08-08T05:27:49.625Z,41.90
2022-08-08T05:30:28.399Z,42.10
2022-08-08T05:32:56.662Z,42.00
2022-08-08T05:35:26.463Z,42.00
2022-08-08T05:37:56.045Z,42.00
2022-08-08T05:40:28.141Z,42.10
2022-08-08T05:42:59.580Z,42.00
2022-08-08T05:45:43.047Z,42.00
2022-08-08T05:48:28.771Z,42.10
2022-08-08T05:51:15.017Z,42.10
2022-08-08T05:54:26.013Z,42.00
2022-08-08T05:56:31.466Z,42.00
2022-08-08T05:59:03.933Z,42.10
2022-08-08T06:01:56.841Z,42.00
2022-08-08T06:04:24.968Z,42.00
2022-08-08T06:06:53.601Z,42.00
2022-08-08T06:09:41.565Z,42.00
2022-08-08T06:12:18.402Z,41.90
2022-08-08T06:14:47.896Z,41.80
2022-08-08T06:17:19.619Z,41.70
2022-08-08T06:19:47.704Z,41.50
2022-08-08T06:25:03.694Z,41.30
2022-08-08T06:27:36.759Z,41.40
2022-08-08T06:30:19.703Z,41.40
2022-08-08T06:32:52.727Z,41.20
2022-08-08T06:36:08.092Z,41.20
2022-08-08T06:38:14.117Z,40.90
2022-08-08T06:40:53.625Z,40.90
2022-08-08T06:43:30.782Z,40.80
2022-08-08T06:46:02.613Z,41.00
2022-08-08T06:48:32.438Z,40.70
2022-08-08T06:51:04.301Z,40.80
2022-08-08T06:53:39.746Z,40.60
2022-08-08T06:56:18.427Z,40.40
2022-08-08T06:58:51.005Z,40.40
2022-08-08T07:02:16.802Z,40.00
2022-08-08T07:04:39.700Z,40.00
2022-08-08T07:07:00.800Z,39.60
2022-08-08T07:09:45.286Z,39.60
2022-08-08T07:12:40.006Z,39.70
2022-08-08T07:15:32.451Z,40.00
2022-08-08T07:18:34.655Z,39.70
2022-08-08T07:20:50.434Z,39.70
2022-08-08T07:23:23.520Z,39.60
2022-08-08T07:25:54.544Z,39.50
2022-08-08T07:28:24.374Z,39.10
2022-08-08T07:30:59.698Z,39.00
2022-08-08T07:33:27.547Z,38.90
2022-08-08T07:36:08.484Z,38.80
2022-08-08T07:38:37.186Z,38.90
2022-08-08T07:41:05.561Z,38.80
2022-08-08T07:43:38.030Z,38.80
2022-08-08T07:46:24.148Z,38.80
2022-08-08T07:48:54.710Z,38.60
2022-08-08T07:51:44.759Z,38.70
2022-08-08T07:54:26.431Z,38.60
2022-08-08T07:56:59.973Z,38.70
2022-08-08T07:59:37.554Z,38.50
2022-08-08T08:02:35.726Z,38.50
2022-08-08T08:04:56.634Z,38.40
2022-08-08T08:07:32.092Z,38.40
2022-08-08T08:10:06.150Z,38.30
2022-08-08T08:12:41.299Z,38.20
2022-08-08T08:15:11.739Z,38.40
2022-08-08T08:17:49.177Z,38.10
2022-08-08T08:20:29.779Z,38.00
2022-08-08T08:23:00.160Z,37.90
2022-08-08T08:25:43.520Z,37.70
2022-08-08T08:28:16.916Z,37.80
2022-08-08T08:30:45.762Z,37.90
2022-08-08T08:33:13.794Z,38.00
2022-08-08T08:36:18.497Z,37.90
2022-08-08T08:38:49.283Z,37.80
2022-08-08T08:41:20.185Z,37.90
2022-08-08T08:43:50.722Z,37.90
2022-08-08T08:46:20.211Z,37.80
2022-08-08T08:48:54.070Z,38.40
2022-08-08T08:51:22.055Z,38.00
2022-08-08T08:53:56.299Z,37.90
2022-08-08T08:56:28.523Z,37.80
2022-08-08T08:58:57.941Z,37.70
2022-08-08T09:01:28.842Z,37.70
2022-08-08T09:04:01.529Z,37.70
2022-08-08T09:06:33.512Z,37.70
2022-08-08T09:09:07.217Z,37.70
2022-08-08T09:11:47.368Z,37.80
2022-08-08T09:14:20.365Z,37.60
2022-08-08T09:16:52.069Z,37.10
2022-08-08T09:21:57.180Z,36.60
2022-08-08T09:22:08.874Z,36.40
2022-08-08T09:24:38.041Z,36.30
2022-08-08T09:27:15.038Z,36.40
2022-08-08T09:29:52.974Z,36.50
2022-08-08T09:32:37.393Z,36.60
2022-08-08T09:35:08.588Z,36.90
2022-08-08T09:38:01.038Z,36.80
2022-08-08T09:40:46.468Z,37.10
2022-08-08T09:43:24.118Z,37.10
2022-08-08T09:46:11.305Z,37.20
2022-08-08T09:48:50.189Z,37.20
2022-08-08T09:51:18.291Z,37.20
2022-08-08T09:53:59.191Z,37.60
2022-08-08T09:56:31.476Z,37.40
2022-08-08T09:59:14.933Z,37.20
2022-08-08T10:01:59.518Z,37.00
2022-08-08T10:04:41.433Z,36.60
2022-08-08T10:07:13.986Z,36.50
2022-08-08T10:09:59.729Z,35.70
2022-08-08T10:12:38.638Z,35.40
2022-08-08T10:15:21.646Z,35.40
2022-08-08T10:18:05.557Z,35.30
2022-08-08T10:20:51.289Z,35.30
2022-08-08T10:23:42.189Z,35.40
2022-08-08T10:26:25.705Z,35.40
2022-08-08T10:29:05.660Z,35.50
2022-08-08T10:31:52.108Z,35.50
2022-08-08T10:34:24.615Z,35.40
2022-08-08T10:36:56.351Z,35.30
2022-08-08T10:39:42.943Z,35.10
2022-08-08T10:42:16.820Z,35.00
2022-08-08T10:44:49.226Z,34.80
2022-08-08T10:47:18.902Z,34.70
2022-08-08T10:50:01.352Z,34.70
2022-08-08T10:52:31.948Z,34.70
2022-08-08T10:55:06.342Z,34.40
2022-08-08T10:57:49.832Z,34.00
2022-08-08T11:00:25.723Z,33.70
2022-08-08T11:02:53.948Z,33.50
2022-08-08T11:05:23.115Z,33.20
2022-08-08T11:08:37.870Z,33.10
2022-08-08T11:10:39.947Z,33.00
2022-08-08T11:16:07.543Z,33.10
2022-08-08T11:18:36.432Z,33.20
2022-08-08T11:21:09.314Z,33.40
2022-08-08T11:23:40.056Z,33.40
2022-08-08T11:26:08.578Z,33.40
2022-08-08T11:28:38.831Z,33.40
2022-08-08T11:31:09.770Z,33.80
2022-08-08T11:33:52.328Z,33.40
2022-08-08T11:36:27.730Z,34.40
2022-08-08T11:38:57.776Z,32.90
2022-08-08T11:41:27.880Z,33.20
2022-08-08T11:44:00.968Z,33.30
2022-08-08T11:46:32.596Z,33.50
2022-08-08T11:49:04.807Z,33.60
2022-08-08T11:51:40.409Z,33.70
2022-08-08T11:54:32.040Z,34.40
2022-08-08T11:57:13.964Z,33.70
2022-08-08T12:00:00.423Z,33.10
2022-08-08T12:02:33.914Z,32.80
2022-08-08T12:05:06.677Z,32.90
2022-08-08T12:07:45.752Z,30.50
2022-08-08T12:10:15.621Z,27.80
2022-08-08T12:12:48.037Z,27.90
2022-08-08T12:15:27.685Z,26.60
2022-08-08T12:17:57.182Z,26.70
2022-08-08T12:20:38.283Z,25.40
2022-08-08T12:23:06.902Z,26.20
2022-08-08T12:25:52.499Z,27.00
2022-08-08T12:28:22.743Z,28.00
2022-08-08T12:30:51.383Z,28.40
2022-08-08T12:33:21.905Z,29.10
2022-08-08T12:35:52.194Z,29.80
2022-08-08T12:38:31.181Z,29.70
2022-08-08T12:41:05.726Z,30.00
2022-08-08T12:43:59.701Z,30.50
2022-08-08T12:46:28.955Z,28.40
2022-08-08T12:49:22.288Z,28.50
2022-08-08T12:51:58.330Z,29.00
2022-08-08T12:54:28.699Z,28.30
2022-08-08T12:56:56.966Z,28.50
2022-08-08T12:59:36.827Z,28.00
2022-08-08T13:02:27.998Z,26.50
2022-08-08T13:04:59.875Z,26.20
2022-08-08T13:08:03.487Z,26.50
2022-08-08T13:10:27.875Z,26.70
2022-08-08T13:13:06.204Z,26.90
2022-08-08T13:15:36.737Z,26.80
2022-08-08T13:18:10.565Z,25.60
2022-08-08T13:20:48.194Z,26.30
2022-08-08T13:23:36.701Z,26.60
2022-08-08T13:26:15.325Z,27.10
2022-08-08T13:28:45.809Z,27.30
2022-08-08T13:31:17.361Z,27.40
2022-08-08T13:33:50.171Z,27.50
2022-08-08T13:36:26.005Z,27.80
2022-08-08T13:38:54.637Z,28.20
2022-08-08T13:41:37.516Z,28.60
2022-08-08T13:44:07.844Z,28.90
2022-08-08T13:46:39.071Z,29.10
2022-08-08T13:50:35.386Z,29.10
2022-08-08T13:52:07.643Z,29.30
2022-08-08T13:54:36.582Z,29.60
2022-08-08T13:57:13.433Z,29.90
2022-08-08T13:59:44.447Z,30.10
2022-08-08T14:02:20.373Z,30.30
2022-08-08T14:04:57.272Z,30.60
2022-08-08T14:07:30.730Z,30.80
2022-08-08T14:10:04.370Z,30.90
2022-08-08T14:12:39.575Z,31.00
2022-08-08T14:15:12.299Z,31.00
2022-08-08T14:17:58.162Z,31.10
2022-08-08T14:20:57.396Z,31.20
2022-08-08T14:24:08.046Z,31.20
2022-08-08T14:26:11.000Z,31.30
2022-08-08T14:28:40.171Z,31.10
2022-08-08T14:31:09.602Z,31.00
2022-08-08T14:33:39.110Z,30.80
2022-08-08T14:36:09.624Z,30.80
2022-08-08T14:38:52.825Z,30.80
2022-08-08T14:41:45.246Z,30.90
2022-08-08T14:44:22.512Z,30.80
2022-08-08T14:47:01.116Z,30.90
2022-08-08T14:49:37.949Z,31.00
2022-08-08T14:52:22.750Z,30.80
2022-08-08T14:54:52.346Z,30.80
2022-08-08T14:57:20.784Z,31.00
2022-08-08T15:00:09.664Z,31.20
2022-08-08T15:02:58.556Z,30.80
2022-08-08T15:05:43.266Z,30.80
2022-08-08T15:08:22.101Z,30.90
2022-08-08T15:11:04.515Z,31.00
2022-08-08T15:13:39.747Z,31.20
2022-08-08T15:16:11.675Z,31.40
2022-08-08T15:18:49.859Z,31.50
2022-08-08T15:21:19.507Z,31.60
2022-08-08T15:23:51.159Z,31.90
2022-08-08T15:26:21.353Z,32.00
2022-08-08T15:28:54.553Z,32.20
2022-08-08T15:31:25.721Z,32.20
2022-08-08T15:34:28.869Z,32.50
2022-08-08T15:36:58.428Z,32.60
2022-08-08T15:39:28.999Z,32.70
2022-08-08T15:42:00.771Z,32.80
2022-08-08T15:44:29.482Z,32.90
2022-08-08T15:46:57.651Z,32.90
2022-08-08T15:49:26.604Z,33.00
2022-08-08T15:51:57.360Z,33.00
2022-08-08T15:54:38.500Z,33.70
2022-08-08T15:57:11.128Z,33.00
2022-08-08T16:00:10.893Z,33.30
2022-08-08T16:02:30.423Z,33.40
2022-08-08T16:04:59.623Z,33.50
2022-08-08T16:07:52.117Z,33.50
2022-08-08T16:13:11.563Z,33.80
2022-08-08T16:13:34.553Z,34.10
2022-08-08T16:15:57.678Z,34.50
2022-08-08T16:18:28.118Z,34.40
2022-08-08T16:21:00.623Z,34.60
2022-08-08T16:23:32.170Z,34.60
2022-08-08T16:26:05.029Z,34.90
2022-08-08T16:28:42.367Z,34.80
2022-08-08T16:31:10.607Z,35.00
2022-08-08T16:33:40.040Z,35.20
2022-08-08T16:36:09.601Z,35.00
2022-08-08T16:38:44.341Z,35.00
2022-08-08T16:41:18.382Z,35.30
2022-08-08T16:43:51.080Z,35.40
2022-08-08T16:46:43.974Z,35.60
2022-08-08T16:49:09.026Z,35.70
2022-08-08T16:54:59.754Z,35.70
2022-08-08T16:55:00.749Z,35.80
2022-08-08T16:58:11.883Z,36.10
2022-08-08T17:00:09.293Z,35.90
2022-08-08T17:02:39.989Z,36.20
2022-08-08T17:05:10.225Z,36.30
2022-08-08T17:07:42.294Z,36.30
2022-08-08T17:10:11.553Z,36.40
2022-08-08T17:12:52.526Z,36.30
2022-08-08T17:15:23.003Z,36.40
2022-08-08T17:18:03.684Z,36.60
2022-08-08T17:20:32.810Z,36.60
2022-08-08T17:23:16.746Z,36.70
2022-08-08T17:25:54.255Z,36.70
2022-08-08T17:28:34.715Z,36.80
2022-08-08T17:31:11.824Z,37.50
2022-08-08T17:34:49.636Z,36.90
2022-08-08T17:37:01.061Z,37.00
2022-08-08T17:40:03.748Z,37.10
2022-08-08T17:42:18.132Z,37.20
2022-08-08T17:44:46.355Z,37.90
2022-08-08T17:47:23.756Z,37.30
2022-08-08T17:49:52.863Z,37.40
2022-08-08T17:52:23.145Z,37.50
2022-08-08T17:54:55.966Z,37.50
2022-08-08T17:57:24.226Z,37.50
2022-08-08T17:59:59.096Z,37.60
2022-08-08T18:02:31.161Z,37.70
2022-08-08T18:05:00.973Z,37.70
2022-08-08T18:08:01.993Z,37.60
2022-08-08T18:10:31.564Z,37.70
2022-08-08T18:13:04.158Z,38.50
2022-08-08T18:15:35.666Z,37.90
2022-08-08T18:18:28.240Z,38.00
2022-08-08T18:20:59.602Z,38.00
2022-08-08T18:23:28.033Z,38.10
2022-08-08T18:26:01.631Z,38.00
2022-08-08T18:28:33.439Z,38.10
2022-08-08T18:31:20.113Z,38.10
2022-08-08T18:34:18.650Z,38.20
2022-08-08T18:36:37.357Z,38.10
2022-08-08T18:39:05.837Z,38.20
2022-08-08T18:41:51.433Z,38.30
2022-08-08T18:44:22.114Z,38.40
2022-08-08T18:46:57.881Z,38.40
2022-08-08T18:49:32.623Z,38.40
2022-08-08T18:52:08.897Z,38.40
2022-08-08T18:55:00.588Z,38.50
2022-08-08T18:57:41.213Z,38.50
2022-08-08T19:00:16.682Z,38.60
2022-08-08T19:02:55.291Z,38.60
2022-08-08T19:05:30.607Z,38.60
2022-08-08T19:08:09.646Z,38.60
2022-08-08T19:10:37.767Z,38.70
2022-08-08T19:13:20.678Z,38.70
2022-08-08T19:15:51.907Z,38.80
2022-08-08T19:18:32.016Z,38.80
2022-08-08T19:21:22.920Z,38.80
2022-08-08T19:23:59.140Z,39.00
2022-08-08T19:26:30.131Z,38.80
2022-08-08T19:28:59.262Z,38.90
2022-08-08T19:31:31.427Z,39.00
2022-08-08T19:34:29.756Z,38.90
2022-08-08T19:36:58.782Z,39.10
2022-08-08T19:39:30.824Z,39.10
2022-08-08T19:42:04.481Z,39.10
2022-08-08T19:44:45.593Z,39.00
2022-08-08T19:47:14.696Z,39.10
2022-08-08T19:49:43.411Z,39.20
2022-08-08T19:52:13.669Z,39.20
2022-08-08T19:54:43.171Z,39.20
2022-08-08T19:57:14.228Z,39.20
2022-08-08T19:59:44.013Z,39.30
2022-08-08T20:02:12.259Z,39.30
2022-08-08T20:04:40.379Z,39.30
2022-08-08T20:08:31.198Z,39.40
2022-08-08T20:10:08.550Z,39.40
2022-08-08T20:12:37.953Z,39.40
2022-08-08T20:15:10.359Z,39.40
2022-08-08T20:17:45.606Z,39.40
2022-08-08T20:20:19.212Z,39.40
2022-08-08T20:22:52.584Z,39.40
2022-08-08T20:25:29.948Z,39.50
2022-08-08T20:28:05.697Z,39.50
2022-08-08T20:30:53.095Z,39.60
2022-08-08T20:35:57.849Z,39.50
2022-08-08T20:38:29.083Z,39.50
2022-08-08T20:41:17.154Z,39.50
2022-08-08T20:43:49.323Z,39.50
2022-08-08T20:46:20.588Z,39.50
2022-08-08T20:48:51.510Z,39.50
2022-08-08T20:51:20.632Z,39.50
2022-08-08T20:53:59.557Z,39.50
2022-08-08T20:56:35.992Z,39.50
2022-08-08T20:59:06.051Z,39.50
2022-08-08T21:01:44.334Z,39.50
2022-08-08T21:04:23.205Z,39.50
2022-08-08T21:06:52.935Z,39.50
2022-08-08T21:09:21.976Z,39.50
2022-08-08T21:11:53.614Z,39.60
2022-08-08T21:14:34.733Z,39.50
2022-08-08T21:17:06.233Z,39.60
2022-08-08T21:19:46.102Z,39.50
2022-08-08T21:22:15.788Z,39.50
2022-08-08T21:24:52.691Z,39.60
2022-08-08T21:28:05.208Z,39.50
2022-08-08T21:30:18.750Z,39.50
2022-08-08T21:32:51.189Z,39.60
2022-08-08T21:36:16.672Z,39.60
2022-08-08T21:38:17.193Z,39.50
2022-08-08T21:40:56.431Z,39.60
2022-08-08T21:43:34.361Z,39.60
2022-08-08T21:48:05.751Z,39.60
2022-08-08T21:48:53.577Z,39.50
2022-08-08T21:54:35.078Z,39.60
2022-08-08T21:54:36.541Z,39.60
2022-08-08T21:57:00.009Z,39.60
2022-08-08T22:00:01.850Z,39.60
2022-08-08T22:02:19.544Z,39.70
2022-08-08T22:04:51.438Z,39.80
2022-08-08T22:07:19.425Z,39.80
2022-08-08T22:09:47.407Z,39.80
2022-08-08T22:12:16.880Z,39.90
2022-08-08T22:14:47.421Z,39.90
2022-08-08T22:17:19.158Z,40.00
2022-08-08T22:20:13.142Z,40.10
2022-08-08T22:22:38.116Z,39.90
2022-08-08T22:25:12.510Z,40.00
2022-08-08T22:28:02.717Z,40.10
2022-08-08T22:30:41.595Z,40.20
2022-08-08T22:34:11.070Z,40.00
2022-08-08T22:36:04.223Z,40.10
2022-08-08T22:38:48.529Z,40.20
2022-08-08T22:41:21.607Z,40.10
2022-08-08T22:44:05.809Z,40.20
2022-08-08T22:46:38.753Z,40.20
2022-08-08T22:49:09.044Z,40.20
2022-08-08T22:51:42.785Z,40.30
2022-08-08T22:54:30.206Z,40.20
2022-08-08T22:57:01.859Z,40.30
2022-08-08T22:59:52.946Z,40.30
2022-08-08T23:02:29.451Z,40.40
2022-08-08T23:04:57.739Z,40.30
2022-08-08T23:07:51.837Z,40.30
2022-08-08T23:10:19.456Z,40.30
2022-08-08T23:12:47.895Z,40.40
2022-08-08T23:16:40.860Z,40.30
2022-08-08T23:18:11.933Z,40.30
2022-08-08T23:20:41.013Z,40.30
2022-08-08T23:23:11.137Z,40.30
2022-08-08T23:25:48.105Z,40.20
2022-08-08T23:28:18.183Z,40.40
2022-08-08T23:30:46.969Z,40.40
2022-08-08T23:33:20.873Z,40.40
2022-08-08T23:36:07.753Z,40.20
2022-08-08T23:38:41.586Z,40.30
2022-08-08T23:41:22.909Z,40.50
2022-08-08T23:43:54.279Z,40.30
2022-08-08T23:49:02.104Z,40.30
2022-08-08T23:49:14.652Z,40.50
2022-08-08T23:52:06.326Z,40.50
2022-08-08T23:54:43.569Z,40.50
2022-08-08T23:57:27.006Z,40.50
